sensor_id;sensor_type;location;lat;lon;timestamp;temperature;humidity
35027;DHT22;60696;51.426;6.934;2023-05-10T04:00:41;13.40;99.90
35027;DHT22;60696;51.426;6.934;2023-05-10T04:03:13;13.40;99.90
35027;DHT22;60696;51.426;6.934;2023-05-10T04:05:38;13.40;99.90
35027;DHT22;60696;51.426;6.934;2023-05-10T04:08:04;13.40;99.90
35027;DHT22;60696;51.426;6.934;2023-05-10T04:10:31;13.50;99.90
35027;DHT22;60696;51.426;6.934;2023-05-10T04:12:56;13.40;99.90
35027;DHT22;60696;51.426;6.934;2023-05-10T04:15:22;13.50;99.90
35027;DHT22;60696;51.426;6.934;2023-05-10T04:17:48;13.50;99.90
35027;DHT22;60696;51.426;6.934;2023-05-10T04:20:14;13.50;99.90
35027;DHT22;60696;51.426;6.934;2023-05-10T04:22:40;13.50;99.90
35027;DHT22;60696;51.426;6.934;2023-05-10T04:25:06;13.50;99.90
35027;DHT22;60696;51.426;6.934;2023-05-10T04:27:32;13.40;99.90
35027;DHT22;60696;51.426;6.934;2023-05-10T04:29:58;13.40;99.90
35027;DHT22;60696;51.426;6.934;2023-05-10T04:32:23;13.50;99.90
35027;DHT22;60696;51.426;6.934;2023-05-10T04:34:49;13.40;99.90
35027;DHT22;60696;51.426;6.934;2023-05-10T04:37:16;13.40;99.90
35027;DHT22;60696;51.426;6.934;2023-05-10T04:39:42;13.50;99.90
35027;DHT22;60696;51.426;6.934;2023-05-10T04:42:08;13.50;99.90
35027;DHT22;60696;51.426;6.934;2023-05-10T04:44:33;13.50;99.90
35027;DHT22;60696;51.426;6.934;2023-05-10T04:47:00;13.60;99.90
35027;DHT22;60696;51.426;6.934;2023-05-10T04:49:27;13.60;99.90
35027;DHT22;60696;51.426;6.934;2023-05-10T04:51:53;13.60;99.90
35027;DHT22;60696;51.426;6.934;2023-05-10T04:54:18;13.60;99.90
35027;DHT22;60696;51.426;6.934;2023-05-10T04:56:44;13.60;99.90
35027;DHT22;60696;51.426;6.934;2023-05-10T04:59:10;13.70;99.90
35027;DHT22;60696;51.426;6.934;2023-05-10T05:01:35;13.70;99.90
35027;DHT22;60696;51.426;6.934;2023-05-10T05:04:01;13.70;99.90
35027;DHT22;60696;51.426;6.934;2023-05-10T05:06:27;13.80;99.90
35027;DHT22;60696;51.426;6.934;2023-05-10T05:08:52;13.70;99.90
35027;DHT22;60696;51.426;6.934;2023-05-10T05:11:18;13.80;99.90
35027;DHT22;60696;51.426;6.934;2023-05-10T05:13:44;13.80;99.90
35027;DHT22;60696;51.426;6.934;2023-05-10T05:16:09;13.90;99.90
35027;DHT22;60696;51.426;6.934;2023-05-10T05:18:36;13.90;99.90
35027;DHT22;60696;51.426;6.934;2023-05-10T05:21:02;13.90;99.90
35027;DHT22;60696;51.426;6.934;2023-05-10T05:23:27;13.90;99.90
35027;DHT22;60696;51.426;6.934;2023-05-10T05:25:53;14.00;99.90
35027;DHT22;60696;51.426;6.934;2023-05-10T05:28:20;14.00;99.90
35027;DHT22;60696;51.426;6.934;2023-05-10T05:30:46;14.10;99.90
35027;DHT22;60696;51.426;6.934;2023-05-10T05:33:13;14.20;99.90
35027;DHT22;60696;51.426;6.934;2023-05-10T05:35:39;14.30;99.90
35027;DHT22;60696;51.426;6.934;2023-05-10T05:38:04;14.20;99.90
35027;DHT22;60696;51.426;6.934;2023-05-10T05:40:30;14.20;99.90
35027;DHT22;60696;51.426;6.934;2023-05-10T05:42:56;14.20;99.90
35027;DHT22;60696;51.426;6.934;2023-05-10T05:45:21;14.20;99.90
35027;DHT22;60696;51.426;6.934;2023-05-10T05:47:47;14.30;99.90
35027;DHT22;60696;51.426;6.934;2023-05-10T05:50:12;14.30;99.90
35027;DHT22;60696;51.426;6.934;2023-05-10T05:52:38;14.30;99.90
35027;DHT22;60696;51.426;6.934;2023-05-10T05:55:04;14.40;99.90
35027;DHT22;60696;51.426;6.934;2023-05-10T05:57:30;14.40;99.90
35027;DHT22;60696;51.426;6.934;2023-05-10T05:59:55;14.50;99.90
35027;DHT22;60696;51.426;6.934;2023-05-10T06:02:21;14.40;99.90
35027;DHT22;60696;51.426;6.934;2023-05-10T06:04:47;14.50;99.90
35027;DHT22;60696;51.426;6.934;2023-05-10T06:07:12;14.50;99.90
35027;DHT22;60696;51.426;6.934;2023-05-10T06:09:38;14.50;99.90
35027;DHT22;60696;51.426;6.934;2023-05-10T06:12:03;14.50;99.90
35027;DHT22;60696;51.426;6.934;2023-05-10T06:14:29;14.50;99.90
35027;DHT22;60696;51.426;6.934;2023-05-10T06:16:54;14.50;99.90
35027;DHT22;60696;51.426;6.934;2023-05-10T06:19:20;14.50;99.90
35027;DHT22;60696;51.426;6.934;2023-05-10T06:21:46;14.50;99.90
35027;DHT22;60696;51.426;6.934;2023-05-10T06:24:11;14.40;99.90
35027;DHT22;60696;51.426;6.934;2023-05-10T06:26:37;14.50;99.90
35027;DHT22;60696;51.426;6.934;2023-05-10T06:29:02;14.50;99.90
35027;DHT22;60696;51.426;6.934;2023-05-10T06:31:28;14.60;99.90
35027;DHT22;60696;51.426;6.934;2023-05-10T06:33:53;14.70;99.90
35027;DHT22;60696;51.426;6.934;2023-05-10T06:36:19;14.60;99.90
35027;DHT22;60696;51.426;6.934;2023-05-10T06:38:45;14.60;99.90
35027;DHT22;60696;51.426;6.934;2023-05-10T06:41:10;14.60;99.90
35027;DHT22;60696;51.426;6.934;2023-05-10T06:43:36;14.80;99.90
35027;DHT22;60696;51.426;6.934;2023-05-10T06:46:05;14.90;99.90
35027;DHT22;60696;51.426;6.934;2023-05-10T06:48:31;15.10;99.90
35027;DHT22;60696;51.426;6.934;2023-05-10T06:50:57;15.10;99.90
35027;DHT22;60696;51.426;6.934;2023-05-10T06:53:23;15.10;99.90
35027;DHT22;60696;51.426;6.934;2023-05-10T06:55:49;15.20;99.90
35027;DHT22;60696;51.426;6.934;2023-05-10T06:58:15;15.30;99.90
35027;DHT22;60696;51.426;6.934;2023-05-10T07:00:40;15.20;99.90
35027;DHT22;60696;51.426;6.934;2023-05-10T07:03:10;15.20;99.90
35027;DHT22;60696;51.426;6.934;2023-05-10T07:05:36;15.20;99.90
35027;DHT22;60696;51.426;6.934;2023-05-10T07:08:01;15.40;99.90
35027;DHT22;60696;51.426;6.934;2023-05-10T07:10:27;15.70;99.90
35027;DHT22;60696;51.426;6.934;2023-05-10T07:12:52;15.90;99.90
35027;DHT22;60696;51.426;6.934;2023-05-10T07:15:18;16.00;99.90
35027;DHT22;60696;51.426;6.934;2023-05-10T07:17:44;16.10;99.90
35027;DHT22;60696;51.426;6.934;2023-05-10T07:20:10;16.10;99.90
35027;DHT22;60696;51.426;6.934;2023-05-10T07:22:36;15.90;99.90
35027;DHT22;60696;51.426;6.934;2023-05-10T07:25:02;15.80;99.90
35027;DHT22;60696;51.426;6.934;2023-05-10T07:27:28;15.70;99.90
35027;DHT22;60696;51.426;6.934;2023-05-10T07:29:53;15.60;99.90
35027;DHT22;60696;51.426;6.934;2023-05-10T07:32:22;15.50;99.90
35027;DHT22;60696;51.426;6.934;2023-05-10T07:34:48;15.30;99.90
35027;DHT22;60696;51.426;6.934;2023-05-10T07:37:14;15.40;99.90
35027;DHT22;60696;51.426;6.934;2023-05-10T07:39:39;15.30;99.90
35027;DHT22;60696;51.426;6.934;2023-05-10T07:42:05;15.20;99.90
35027;DHT22;60696;51.426;6.934;2023-05-10T07:44:31;15.30;99.90
35027;DHT22;60696;51.426;6.934;2023-05-10T07:46:56;15.20;99.90
35027;DHT22;60696;51.426;6.934;2023-05-10T07:49:22;15.00;99.90
35027;DHT22;60696;51.426;6.934;2023-05-10T07:51:49;15.00;99.90
35027;DHT22;60696;51.426;6.934;2023-05-10T07:54:15;15.10;99.90
35027;DHT22;60696;51.426;6.934;2023-05-10T07:56:41;15.10;99.90
35027;DHT22;60696;51.426;6.934;2023-05-10T07:59:15;15.20;99.90
35027;DHT22;60696;51.426;6.934;2023-05-10T08:01:42;15.20;99.90
35027;DHT22;60696;51.426;6.934;2023-05-10T08:04:08;15.20;99.90
35027;DHT22;60696;51.426;6.934;2023-05-10T08:06:34;15.10;99.90
35027;DHT22;60696;51.426;6.934;2023-05-10T08:08:59;15.10;99.90
35027;DHT22;60696;51.426;6.934;2023-05-10T08:11:25;15.10;99.90
35027;DHT22;60696;51.426;6.934;2023-05-10T08:13:53;15.10;99.90
35027;DHT22;60696;51.426;6.934;2023-05-10T08:16:19;15.00;99.90
35027;DHT22;60696;51.426;6.934;2023-05-10T08:18:45;15.10;99.90
35027;DHT22;60696;51.426;6.934;2023-05-10T08:21:12;15.10;99.90
35027;DHT22;60696;51.426;6.934;2023-05-10T08:23:37;15.10;99.90
35027;DHT22;60696;51.426;6.934;2023-05-10T08:26:03;15.50;99.90
35027;DHT22;60696;51.426;6.934;2023-05-10T08:28:29;16.20;99.90
35027;DHT22;60696;51.426;6.934;2023-05-10T08:30:56;16.70;99.90
35027;DHT22;60696;51.426;6.934;2023-05-10T08:33:21;17.00;99.90
35027;DHT22;60696;51.426;6.934;2023-05-10T08:35:47;17.10;99.90
35027;DHT22;60696;51.426;6.934;2023-05-10T08:38:13;16.90;27.00
35027;DHT22;60696;51.426;6.934;2023-05-10T08:40:42;16.70;56.00
35027;DHT22;60696;51.426;6.934;2023-05-10T08:43:12;16.30;25.40
35027;DHT22;60696;51.426;6.934;2023-05-10T08:45:42;16.00;79.90
35027;DHT22;60696;51.426;6.934;2023-05-10T08:48:09;15.90;95.80
35027;DHT22;60696;51.426;6.934;2023-05-10T08:50:42;15.70;99.90
35027;DHT22;60696;51.426;6.934;2023-05-10T08:53:13;15.60;99.90
35027;DHT22;60696;51.426;6.934;2023-05-10T08:55:39;15.50;99.90
35027;DHT22;60696;51.426;6.934;2023-05-10T08:58:09;15.60;99.90
35027;DHT22;60696;51.426;6.934;2023-05-10T09:00:35;15.70;99.90
35027;DHT22;60696;51.426;6.934;2023-05-10T09:03:03;15.70;99.90
35027;DHT22;60696;51.426;6.934;2023-05-10T09:05:29;15.80;99.90
35027;DHT22;60696;51.426;6.934;2023-05-10T09:07:55;16.10;99.90
35027;DHT22;60696;51.426;6.934;2023-05-10T09:10:21;16.30;99.90
35027;DHT22;60696;51.426;6.934;2023-05-10T09:12:48;16.50;99.90
35027;DHT22;60696;51.426;6.934;2023-05-10T09:15:17;16.70;99.90
35027;DHT22;60696;51.426;6.934;2023-05-10T09:17:44;16.80;99.90
35027;DHT22;60696;51.426;6.934;2023-05-10T09:20:10;16.80;99.90
35027;DHT22;60696;51.426;6.934;2023-05-10T09:22:36;16.60;99.90
35027;DHT22;60696;51.426;6.934;2023-05-10T09:25:10;16.60;99.90
35027;DHT22;60696;51.426;6.934;2023-05-10T09:27:40;16.60;99.90
35027;DHT22;60696;51.426;6.934;2023-05-10T09:30:06;16.40;99.90
35027;DHT22;60696;51.426;6.934;2023-05-10T09:32:45;16.20;99.90
35027;DHT22;60696;51.426;6.934;2023-05-10T09:35:17;16.10;99.90
35027;DHT22;60696;51.426;6.934;2023-05-10T09:37:47;15.90;99.90
35027;DHT22;60696;51.426;6.934;2023-05-10T09:40:20;16.00;99.90
35027;DHT22;60696;51.426;6.934;2023-05-10T09:42:57;15.90;99.90
35027;DHT22;60696;51.426;6.934;2023-05-10T09:45:25;15.90;99.90
35027;DHT22;60696;51.426;6.934;2023-05-10T09:47:51;15.90;99.90
35027;DHT22;60696;51.426;6.934;2023-05-10T09:50:18;16.10;99.90
35027;DHT22;60696;51.426;6.934;2023-05-10T09:52:47;16.30;99.90
35027;DHT22;60696;51.426;6.934;2023-05-10T09:55:14;16.40;99.90
35027;DHT22;60696;51.426;6.934;2023-05-10T09:57:40;16.50;99.90
35027;DHT22;60696;51.426;6.934;2023-05-10T10:00:06;16.60;99.90
35027;DHT22;60696;51.426;6.934;2023-05-10T10:02:33;16.70;99.90
35027;DHT22;60696;51.426;6.934;2023-05-10T10:05:01;16.70;99.90
35027;DHT22;60696;51.426;6.934;2023-05-10T10:07:27;16.90;99.90
35027;DHT22;60696;51.426;6.934;2023-05-10T10:09:53;17.20;99.90
35027;DHT22;60696;51.426;6.934;2023-05-10T10:12:19;17.40;99.90
35027;DHT22;60696;51.426;6.934;2023-05-10T10:14:46;17.30;99.90
35027;DHT22;60696;51.426;6.934;2023-05-10T10:17:13;17.00;99.90
35027;DHT22;60696;51.426;6.934;2023-05-10T10:19:39;16.70;99.90
35027;DHT22;60696;51.426;6.934;2023-05-10T10:22:05;16.60;99.90
35027;DHT22;60696;51.426;6.934;2023-05-10T10:24:31;16.60;99.90
35027;DHT22;60696;51.426;6.934;2023-05-10T10:27:23;16.90;99.90
35027;DHT22;60696;51.426;6.934;2023-05-10T10:32:42;16.70;99.90
35027;DHT22;60696;51.426;6.934;2023-05-10T10:35:13;16.30;99.90
35027;DHT22;60696;51.426;6.934;2023-05-10T10:37:45;16.00;99.90
35027;DHT22;60696;51.426;6.934;2023-05-10T10:40:27;15.90;99.90
35027;DHT22;60696;51.426;6.934;2023-05-10T10:42:54;15.70;99.90
35027;DHT22;60696;51.426;6.934;2023-05-10T10:45:21;15.70;99.90
35027;DHT22;60696;51.426;6.934;2023-05-10T10:47:47;15.80;99.90
35027;DHT22;60696;51.426;6.934;2023-05-10T10:50:13;15.90;99.90
35027;DHT22;60696;51.426;6.934;2023-05-10T10:52:45;16.00;99.90
35027;DHT22;60696;51.426;6.934;2023-05-10T10:55:18;16.10;99.90
35027;DHT22;60696;51.426;6.934;2023-05-10T10:57:47;16.10;99.90
35027;DHT22;60696;51.426;6.934;2023-05-10T11:02:53;16.30;99.90
35027;DHT22;60696;51.426;6.934;2023-05-10T11:07:58;16.50;99.90
35027;DHT22;60696;51.426;6.934;2023-05-10T11:10:25;16.60;99.90
35027;DHT22;60696;51.426;6.934;2023-05-10T11:13:06;16.90;99.90
35027;DHT22;60696;51.426;6.934;2023-05-10T11:15:36;17.20;99.90
35027;DHT22;60696;51.426;6.934;2023-05-10T11:18:28;17.50;99.90
35027;DHT22;60696;51.426;6.934;2023-05-10T11:21:00;17.40;99.90
35027;DHT22;60696;51.426;6.934;2023-05-10T11:23:32;17.00;99.90
35027;DHT22;60696;51.426;6.934;2023-05-10T11:25:59;16.60;99.90
35027;DHT22;60696;51.426;6.934;2023-05-10T11:28:26;16.30;99.90
35027;DHT22;60696;51.426;6.934;2023-05-10T11:30:52;16.00;99.90
35027;DHT22;60696;51.426;6.934;2023-05-10T11:33:19;15.90;99.90
35027;DHT22;60696;51.426;6.934;2023-05-10T11:35:45;15.90;99.90
35027;DHT22;60696;51.426;6.934;2023-05-10T11:38:12;16.10;99.90
35027;DHT22;60696;51.426;6.934;2023-05-10T11:40:39;16.10;99.90
35027;DHT22;60696;51.426;6.934;2023-05-10T11:43:05;16.20;99.90
35027;DHT22;60696;51.426;6.934;2023-05-10T11:45:34;16.40;99.90
35027;DHT22;60696;51.426;6.934;2023-05-10T11:48:01;16.50;99.90
35027;DHT22;60696;51.426;6.934;2023-05-10T11:50:27;16.30;99.90
35027;DHT22;60696;51.426;6.934;2023-05-10T11:52:54;16.40;99.90
35027;DHT22;60696;51.426;6.934;2023-05-10T11:55:20;16.60;99.90
35027;DHT22;60696;51.426;6.934;2023-05-10T11:57:45;16.80;99.90
35027;DHT22;60696;51.426;6.934;2023-05-10T12:00:14;16.90;99.90
35027;DHT22;60696;51.426;6.934;2023-05-10T12:02:40;17.20;99.90
35027;DHT22;60696;51.426;6.934;2023-05-10T12:05:07;17.20;99.90
35027;DHT22;60696;51.426;6.934;2023-05-10T12:07:32;17.20;99.90
35027;DHT22;60696;51.426;6.934;2023-05-10T12:12:44;17.30;99.90
35027;DHT22;60696;51.426;6.934;2023-05-10T12:15:21;17.30;99.90
35027;DHT22;60696;51.426;6.934;2023-05-10T12:17:47;17.30;99.90
35027;DHT22;60696;51.426;6.934;2023-05-10T12:20:14;17.10;99.90
35027;DHT22;60696;51.426;6.934;2023-05-10T12:22:43;16.90;99.90
35027;DHT22;60696;51.426;6.934;2023-05-10T12:25:09;16.90;99.90
35027;DHT22;60696;51.426;6.934;2023-05-10T12:27:35;17.00;99.90
35027;DHT22;60696;51.426;6.934;2023-05-10T12:30:02;17.10;99.90
35027;DHT22;60696;51.426;6.934;2023-05-10T12:32:38;17.30;99.90
35027;DHT22;60696;51.426;6.934;2023-05-10T12:35:04;17.40;99.90
35027;DHT22;60696;51.426;6.934;2023-05-10T12:37:29;17.70;99.90
35027;DHT22;60696;51.426;6.934;2023-05-10T12:39:55;17.80;99.90
35027;DHT22;60696;51.426;6.934;2023-05-10T12:42:21;18.30;99.90
35027;DHT22;60696;51.426;6.934;2023-05-10T12:44:46;18.40;99.90
35027;DHT22;60696;51.426;6.934;2023-05-10T12:47:12;18.40;99.90
35027;DHT22;60696;51.426;6.934;2023-05-10T12:49:38;18.50;99.90
35027;DHT22;60696;51.426;6.934;2023-05-10T12:52:03;18.60;99.90
35027;DHT22;60696;51.426;6.934;2023-05-10T12:54:29;18.60;99.90
35027;DHT22;60696;51.426;6.934;2023-05-10T12:56:54;18.60;99.90
35027;DHT22;60696;51.426;6.934;2023-05-10T12:59:20;18.60;99.90
35027;DHT22;60696;51.426;6.934;2023-05-10T13:01:46;18.60;99.90
35027;DHT22;60696;51.426;6.934;2023-05-10T13:04:11;18.50;99.90
35027;DHT22;60696;51.426;6.934;2023-05-10T13:06:37;18.60;99.90
35027;DHT22;60696;51.426;6.934;2023-05-10T13:09:02;18.60;99.90
35027;DHT22;60696;51.426;6.934;2023-05-10T13:11:28;18.70;99.90
35027;DHT22;60696;51.426;6.934;2023-05-10T13:13:53;18.90;99.90
35027;DHT22;60696;51.426;6.934;2023-05-10T13:16:19;19.20;99.90
35027;DHT22;60696;51.426;6.934;2023-05-10T13:18:45;19.30;99.90
35027;DHT22;60696;51.426;6.934;2023-05-10T13:21:10;19.40;99.90
35027;DHT22;60696;51.426;6.934;2023-05-10T13:23:36;19.50;99.90
35027;DHT22;60696;51.426;6.934;2023-05-10T13:26:02;19.80;99.90
35027;DHT22;60696;51.426;6.934;2023-05-10T13:28:27;19.90;99.90
35027;DHT22;60696;51.426;6.934;2023-05-10T13:30:53;19.80;99.90
35027;DHT22;60696;51.426;6.934;2023-05-10T13:33:18;19.60;99.90
35027;DHT22;60696;51.426;6.934;2023-05-10T13:35:44;19.30;99.90
35027;DHT22;60696;51.426;6.934;2023-05-10T13:38:11;19.20;99.90
35027;DHT22;60696;51.426;6.934;2023-05-10T13:40:37;19.20;99.90
35027;DHT22;60696;51.426;6.934;2023-05-10T13:43:02;19.20;99.90
35027;DHT22;60696;51.426;6.934;2023-05-10T13:45:28;19.10;99.90
35027;DHT22;60696;51.426;6.934;2023-05-10T13:47:53;19.10;99.90
35027;DHT22;60696;51.426;6.934;2023-05-10T13:50:19;19.10;99.90
35027;DHT22;60696;51.426;6.934;2023-05-10T13:52:45;19.20;99.90
35027;DHT22;60696;51.426;6.934;2023-05-10T13:55:10;19.40;99.90
35027;DHT22;60696;51.426;6.934;2023-05-10T13:57:38;19.50;99.90
35027;DHT22;60696;51.426;6.934;2023-05-10T14:00:04;19.70;99.90
35027;DHT22;60696;51.426;6.934;2023-05-10T14:02:30;19.50;99.90
35027;DHT22;60696;51.426;6.934;2023-05-10T14:04:59;19.40;99.90
35027;DHT22;60696;51.426;6.934;2023-05-10T14:07:24;19.20;99.90
35027;DHT22;60696;51.426;6.934;2023-05-10T14:09:50;18.90;99.90
35027;DHT22;60696;51.426;6.934;2023-05-10T14:12:15;18.90;99.90
35027;DHT22;60696;51.426;6.934;2023-05-10T14:14:41;18.90;99.90
35027;DHT22;60696;51.426;6.934;2023-05-10T14:17:07;19.00;99.90
35027;DHT22;60696;51.426;6.934;2023-05-10T14:19:33;18.90;99.90
35027;DHT22;60696;51.426;6.934;2023-05-10T14:21:59;18.70;99.90
35027;DHT22;60696;51.426;6.934;2023-05-10T14:24:25;18.60;99.90
35027;DHT22;60696;51.426;6.934;2023-05-10T14:26:50;18.50;99.90
35027;DHT22;60696;51.426;6.934;2023-05-10T14:29:21;18.40;99.90
35027;DHT22;60696;51.426;6.934;2023-05-10T14:31:47;18.50;99.90
35027;DHT22;60696;51.426;6.934;2023-05-10T14:34:13;18.70;99.90
35027;DHT22;60696;51.426;6.934;2023-05-10T14:36:38;18.90;99.90
35027;DHT22;60696;51.426;6.934;2023-05-10T14:39:04;19.00;99.90
35027;DHT22;60696;51.426;6.934;2023-05-10T14:41:31;19.10;99.90
35027;DHT22;60696;51.426;6.934;2023-05-10T14:43:58;19.30;99.90
35027;DHT22;60696;51.426;6.934;2023-05-10T14:46:23;19.20;99.90
35027;DHT22;60696;51.426;6.934;2023-05-10T14:48:49;19.30;99.90
35027;DHT22;60696;51.426;6.934;2023-05-10T14:51:14;19.40;99.90
35027;DHT22;60696;51.426;6.934;2023-05-10T14:53:40;19.30;99.90
35027;DHT22;60696;51.426;6.934;2023-05-10T14:56:06;19.40;99.90
35027;DHT22;60696;51.426;6.934;2023-05-10T14:58:32;19.10;99.90
35027;DHT22;60696;51.426;6.934;2023-05-10T15:00:57;18.90;99.90
35027;DHT22;60696;51.426;6.934;2023-05-10T15:03:23;18.90;99.90
35027;DHT22;60696;51.426;6.934;2023-05-10T15:05:49;18.90;99.90
35027;DHT22;60696;51.426;6.934;2023-05-10T15:08:14;19.00;99.90
35027;DHT22;60696;51.426;6.934;2023-05-10T15:10:40;18.90;99.90
35027;DHT22;60696;51.426;6.934;2023-05-10T15:13:05;18.80;99.90
35027;DHT22;60696;51.426;6.934;2023-05-10T15:15:31;18.70;99.90
35027;DHT22;60696;51.426;6.934;2023-05-10T15:17:56;18.50;99.90
35027;DHT22;60696;51.426;6.934;2023-05-10T15:20:22;18.40;99.90
35027;DHT22;60696;51.426;6.934;2023-05-10T15:22:48;18.30;99.90
35027;DHT22;60696;51.426;6.934;2023-05-10T15:25:13;18.20;99.90
35027;DHT22;60696;51.426;6.934;2023-05-10T15:27:41;18.30;99.90
35027;DHT22;60696;51.426;6.934;2023-05-10T15:30:09;18.30;99.90
35027;DHT22;60696;51.426;6.934;2023-05-10T15:32:35;18.40;99.90
35027;DHT22;60696;51.426;6.934;2023-05-10T15:35:00;18.40;99.90
35027;DHT22;60696;51.426;6.934;2023-05-10T15:37:26;18.40;99.90
35027;DHT22;60696;51.426;6.934;2023-05-10T15:39:52;18.50;99.90
35027;DHT22;60696;51.426;6.934;2023-05-10T15:42:18;18.40;99.90
35027;DHT22;60696;51.426;6.934;2023-05-10T15:44:43;18.40;99.90
35027;DHT22;60696;51.426;6.934;2023-05-10T15:47:10;18.30;99.90
35027;DHT22;60696;51.426;6.934;2023-05-10T15:49:35;18.30;99.90
35027;DHT22;60696;51.426;6.934;2023-05-10T15:52:01;17.90;99.90
35027;DHT22;60696;51.426;6.934;2023-05-10T15:54:27;18.00;99.90
35027;DHT22;60696;51.426;6.934;2023-05-10T15:56:53;17.90;99.90
35027;DHT22;60696;51.426;6.934;2023-05-10T15:59:19;17.80;99.90
35027;DHT22;60696;51.426;6.934;2023-05-10T16:01:44;17.90;99.90
35027;DHT22;60696;51.426;6.934;2023-05-10T16:04:10;17.90;99.90
35027;DHT22;60696;51.426;6.934;2023-05-10T16:06:36;18.00;99.90
35027;DHT22;60696;51.426;6.934;2023-05-10T16:09:02;17.90;99.90
35027;DHT22;60696;51.426;6.934;2023-05-10T16:11:27;17.70;99.90
35027;DHT22;60696;51.426;6.934;2023-05-10T16:13:53;17.30;99.90
35027;DHT22;60696;51.426;6.934;2023-05-10T16:16:19;16.90;99.90
35027;DHT22;60696;51.426;6.934;2023-05-10T16:18:44;16.60;99.90
35027;DHT22;60696;51.426;6.934;2023-05-10T16:21:10;16.40;99.90
35027;DHT22;60696;51.426;6.934;2023-05-10T16:23:36;16.40;99.90
35027;DHT22;60696;51.426;6.934;2023-05-10T16:26:01;16.30;99.90
35027;DHT22;60696;51.426;6.934;2023-05-10T16:28:27;16.20;99.90
35027;DHT22;60696;51.426;6.934;2023-05-10T16:30:53;16.00;99.90
35027;DHT22;60696;51.426;6.934;2023-05-10T16:33:18;15.80;99.90
35027;DHT22;60696;51.426;6.934;2023-05-10T16:35:44;15.60;99.90
35027;DHT22;60696;51.426;6.934;2023-05-10T16:38:10;15.50;99.90
35027;DHT22;60696;51.426;6.934;2023-05-10T16:40:35;15.50;99.90
35027;DHT22;60696;51.426;6.934;2023-05-10T16:43:01;15.40;99.90
35027;DHT22;60696;51.426;6.934;2023-05-10T16:45:30;15.40;99.90
35027;DHT22;60696;51.426;6.934;2023-05-10T16:47:56;15.50;99.90
35027;DHT22;60696;51.426;6.934;2023-05-10T16:50:21;15.50;99.90
35027;DHT22;60696;51.426;6.934;2023-05-10T16:52:47;15.50;99.90
35027;DHT22;60696;51.426;6.934;2023-05-10T16:55:22;15.40;99.90
35027;DHT22;60696;51.426;6.934;2023-05-10T16:57:48;15.40;99.90
35027;DHT22;60696;51.426;6.934;2023-05-10T17:00:14;15.40;99.90
35027;DHT22;60696;51.426;6.934;2023-05-10T17:02:40;15.30;99.90
35027;DHT22;60696;51.426;6.934;2023-05-10T17:05:06;15.40;99.90
35027;DHT22;60696;51.426;6.934;2023-05-10T17:07:32;15.40;99.90
35027;DHT22;60696;51.426;6.934;2023-05-10T17:09:57;15.40;99.90
35027;DHT22;60696;51.426;6.934;2023-05-10T17:12:23;15.50;99.90
35027;DHT22;60696;51.426;6.934;2023-05-10T17:14:49;15.60;99.90
35027;DHT22;60696;51.426;6.934;2023-05-10T17:17:15;15.60;99.90
35027;DHT22;60696;51.426;6.934;2023-05-10T17:19:44;15.70;99.90
35027;DHT22;60696;51.426;6.934;2023-05-10T17:22:11;15.60;99.90
35027;DHT22;60696;51.426;6.934;2023-05-10T17:24:37;15.60;99.90
35027;DHT22;60696;51.426;6.934;2023-05-10T17:27:02;15.60;99.90
35027;DHT22;60696;51.426;6.934;2023-05-10T17:29:28;15.40;99.90
35027;DHT22;60696;51.426;6.934;2023-05-10T17:31:56;15.30;99.90
35027;DHT22;60696;51.426;6.934;2023-05-10T17:34:22;15.40;99.90
35027;DHT22;60696;51.426;6.934;2023-05-10T17:36:48;15.50;99.90
35027;DHT22;60696;51.426;6.934;2023-05-10T17:39:14;15.60;99.90
35027;DHT22;60696;51.426;6.934;2023-05-10T17:41:39;15.70;99.90
35027;DHT22;60696;51.426;6.934;2023-05-10T17:44:05;15.60;99.90
35027;DHT22;60696;51.426;6.934;2023-05-10T17:46:31;15.70;99.90
35027;DHT22;60696;51.426;6.934;2023-05-10T17:48:57;15.70;99.90
35027;DHT22;60696;51.426;6.934;2023-05-10T17:51:23;15.70;99.90
35027;DHT22;60696;51.426;6.934;2023-05-10T17:53:48;15.70;99.90
35027;DHT22;60696;51.426;6.934;2023-05-10T17:59:16;15.90;99.90
35027;DHT22;60696;51.426;6.934;2023-05-10T18:01:42;16.00;99.90
35027;DHT22;60696;51.426;6.934;2023-05-10T18:04:07;16.10;99.90
35027;DHT22;60696;51.426;6.934;2023-05-10T18:06:36;16.10;99.90
35027;DHT22;60696;51.426;6.934;2023-05-10T18:09:03;16.10;99.90
35027;DHT22;60696;51.426;6.934;2023-05-10T18:11:33;16.00;99.90
35027;DHT22;60696;51.426;6.934;2023-05-10T18:13:58;16.00;99.90
35027;DHT22;60696;51.426;6.934;2023-05-10T18:16:24;16.00;99.90
35027;DHT22;60696;51.426;6.934;2023-05-10T18:18:49;16.00;99.90
35027;DHT22;60696;51.426;6.934;2023-05-10T18:21:15;16.00;99.90
35027;DHT22;60696;51.426;6.934;2023-05-10T18:23:42;15.80;99.90
35027;DHT22;60696;51.426;6.934;2023-05-10T18:26:07;15.80;99.90
35027;DHT22;60696;51.426;6.934;2023-05-10T18:28:33;15.70;99.90
35027;DHT22;60696;51.426;6.934;2023-05-10T18:30:59;15.60;99.90
35027;DHT22;60696;51.426;6.934;2023-05-10T18:33:24;15.60;99.90
35027;DHT22;60696;51.426;6.934;2023-05-10T18:35:50;15.50;99.90
35027;DHT22;60696;51.426;6.934;2023-05-10T18:38:16;15.30;99.90
35027;DHT22;60696;51.426;6.934;2023-05-10T18:40:42;15.10;99.90
35027;DHT22;60696;51.426;6.934;2023-05-10T18:43:07;14.90;99.90
35027;DHT22;60696;51.426;6.934;2023-05-10T18:45:33;14.90;99.90
35027;DHT22;60696;51.426;6.934;2023-05-10T18:47:59;14.90;99.90
35027;DHT22;60696;51.426;6.934;2023-05-10T18:50:25;14.80;99.90
35027;DHT22;60696;51.426;6.934;2023-05-10T18:52:50;14.70;99.90
35027;DHT22;60696;51.426;6.934;2023-05-10T18:55:16;14.60;99.90
35027;DHT22;60696;51.426;6.934;2023-05-10T18:57:41;14.50;99.90
35027;DHT22;60696;51.426;6.934;2023-05-10T19:00:09;14.40;99.90
35027;DHT22;60696;51.426;6.934;2023-05-10T19:02:36;14.30;99.90
35027;DHT22;60696;51.426;6.934;2023-05-10T19:05:01;14.20;99.90
35027;DHT22;60696;51.426;6.934;2023-05-10T19:07:27;14.20;99.90
35027;DHT22;60696;51.426;6.934;2023-05-10T19:09:53;14.20;99.90
35027;DHT22;60696;51.426;6.934;2023-05-10T19:12:18;14.10;99.90
35027;DHT22;60696;51.426;6.934;2023-05-10T19:14:44;14.10;99.90
35027;DHT22;60696;51.426;6.934;2023-05-10T19:17:10;14.10;99.90
35027;DHT22;60696;51.426;6.934;2023-05-10T19:19:35;14.10;99.90
35027;DHT22;60696;51.426;6.934;2023-05-10T19:22:01;14.00;99.90
35027;DHT22;60696;51.426;6.934;2023-05-10T19:24:27;14.00;99.90
35027;DHT22;60696;51.426;6.934;2023-05-10T19:26:52;13.90;99.90
35027;DHT22;60696;51.426;6.934;2023-05-10T19:29:20;13.90;99.90
35027;DHT22;60696;51.426;6.934;2023-05-10T19:31:45;13.80;99.90
35027;DHT22;60696;51.426;6.934;2023-05-10T19:34:11;13.80;99.90
35027;DHT22;60696;51.426;6.934;2023-05-10T19:36:37;13.90;99.90
35027;DHT22;60696;51.426;6.934;2023-05-10T19:39:02;14.00;99.90